sensor_id;sensor_type;location;lat;lon;timestamp;pressure;altitude;pressure_sealevel;temperature;humidity
55590;BME280;41452;42.780;23.116;2022-08-30T00:02:22;94542.22;;;18.45;91.96
55590;BME280;41452;42.780;23.116;2022-08-30T00:04:48;94532.41;;;18.35;92.27
55590;BME280;41452;42.780;23.116;2022-08-30T00:07:14;94488.16;;;18.10;92.27
55590;BME280;41452;42.780;23.116;2022-08-30T00:09:39;94515.97;;;18.28;92.11
55590;BME280;41452;42.780;23.116;2022-08-30T00:12:05;94519.97;;;18.30;92.02
55590;BME280;41452;42.780;23.116;2022-08-30T00:14:30;94500.06;;;18.17;91.85
55590;BME280;41452;42.780;23.116;2022-08-30T00:16:56;94522.34;;;18.32;91.63
55590;BME280;41452;42.780;23.116;2022-08-30T00:19:21;94546.19;;;18.47;91.38
55590;BME280;41452;42.780;23.116;2022-08-30T00:21:46;94490.56;;;18.06;91.59
55590;BME280;41452;42.780;23.116;2022-08-30T00:24:12;94493.22;;;18.06;91.82
55590;BME280;41452;42.780;23.116;2022-08-30T00:26:37;94485.25;;;18.06;90.96
55590;BME280;41452;42.780;23.116;2022-08-30T00:29:02;94543.53;;;18.47;91.22
55590;BME280;41452;42.780;23.116;2022-08-30T00:31:28;94539.59;;;18.39;91.56
55590;BME280;41452;42.780;23.116;2022-08-30T00:33:53;94537.97;;;18.38;92.13
55590;BME280;41452;42.780;23.116;2022-08-30T00:36:19;94545.97;;;18.38;91.69
55590;BME280;41452;42.780;23.116;2022-08-30T00:38:45;94535.66;;;18.27;91.98
55590;BME280;41452;42.780;23.116;2022-08-30T00:41:10;94554.75;;;18.39;92.11
55590;BME280;41452;42.780;23.116;2022-08-30T00:43:36;94531.41;;;18.26;92.25
55590;BME280;41452;42.780;23.116;2022-08-30T00:46:03;94535.09;;;18.30;92.32
55590;BME280;41452;42.780;23.116;2022-08-30T00:48:30;94544.13;;;18.34;92.34
55590;BME280;41452;42.780;23.116;2022-08-30T00:51:04;94529.53;;;18.26;91.96
55590;BME280;41452;42.780;23.116;2022-08-30T00:53:35;94508.88;;;18.13;92.15
55590;BME280;41452;42.780;23.116;2022-08-30T00:56:02;94548.09;;;18.36;92.19
55590;BME280;41452;42.780;23.116;2022-08-30T00:58:33;94548.38;;;18.35;91.92
55590;BME280;41452;42.780;23.116;2022-08-30T01:00:59;94529.31;;;18.17;91.79
55590;BME280;41452;42.780;23.116;2022-08-30T01:03:27;94545.53;;;18.21;92.38
55590;BME280;41452;42.780;23.116;2022-08-30T01:05:53;94518.00;;;17.96;92.37
55590;BME280;41452;42.780;23.116;2022-08-30T01:08:20;94504.47;;;17.93;92.47
55590;BME280;41452;42.780;23.116;2022-08-30T01:10:47;94546.09;;;18.13;92.48
55590;BME280;41452;42.780;23.116;2022-08-30T01:13:13;94544.25;;;18.08;92.75
55590;BME280;41452;42.780;23.116;2022-08-30T01:15:40;94547.97;;;18.07;92.73
55590;BME280;41452;42.780;23.116;2022-08-30T01:18:07;94554.34;;;18.11;92.97
55590;BME280;41452;42.780;23.116;2022-08-30T01:20:38;94549.31;;;18.04;92.61
55590;BME280;41452;42.780;23.116;2022-08-30T01:23:14;94524.91;;;17.92;93.11
55590;BME280;41452;42.780;23.116;2022-08-30T01:25:41;94561.78;;;18.09;93.44
55590;BME280;41452;42.780;23.116;2022-08-30T01:28:10;94551.94;;;18.10;93.71
55590;BME280;41452;42.780;23.116;2022-08-30T01:30:38;94556.47;;;18.09;93.69
55590;BME280;41452;42.780;23.116;2022-08-30T01:33:05;94547.97;;;18.07;93.74
55590;BME280;41452;42.780;23.116;2022-08-30T01:35:34;94553.28;;;18.12;93.69
55590;BME280;41452;42.780;23.116;2022-08-30T01:38:03;94522.47;;;18.01;93.56
55590;BME280;41452;42.780;23.116;2022-08-30T01:40:29;94549.00;;;18.11;93.54
55590;BME280;41452;42.780;23.116;2022-08-30T01:42:54;94527.81;;;17.96;93.99
55590;BME280;41452;42.780;23.116;2022-08-30T01:45:20;94552.22;;;18.08;93.97
55590;BME280;41452;42.780;23.116;2022-08-30T01:47:45;94547.41;;;18.10;93.80
55590;BME280;41452;42.780;23.116;2022-08-30T01:50:11;94549.00;;;18.11;93.62
55590;BME280;41452;42.780;23.116;2022-08-30T01:52:37;94549.53;;;18.13;93.39
55590;BME280;41452;42.780;23.116;2022-08-30T01:55:03;94538.13;;;18.13;93.34
55590;BME280;41452;42.780;23.116;2022-08-30T01:57:29;94472.63;;;17.67;93.36
55590;BME280;41452;42.780;23.116;2022-08-30T01:59:54;94516.41;;;17.80;93.70
55590;BME280;41452;42.780;23.116;2022-08-30T02:02:23;94541.91;;;17.96;93.87
55590;BME280;41452;42.780;23.116;2022-08-30T02:04:51;94538.44;;;17.96;93.94
55590;BME280;41452;42.780;23.116;2022-08-30T02:07:18;94538.16;;;17.97;93.90
55590;BME280;41452;42.780;23.116;2022-08-30T02:09:43;94536.31;;;17.98;94.22
55590;BME280;41452;42.780;23.116;2022-08-30T02:12:09;94525.97;;;17.96;94.34
55590;BME280;41452;42.780;23.116;2022-08-30T02:14:35;94497.56;;;17.76;94.62
55590;BME280;41452;42.780;23.116;2022-08-30T02:17:02;94531.03;;;17.93;94.52
55590;BME280;41452;42.780;23.116;2022-08-30T02:19:28;94538.19;;;17.87;94.63
55590;BME280;41452;42.780;23.116;2022-08-30T02:21:53;94526.25;;;17.90;94.72
55590;BME280;41452;42.780;23.116;2022-08-30T02:24:19;94533.13;;;17.91;94.58
55590;BME280;41452;42.780;23.116;2022-08-30T02:26:44;94529.69;;;17.85;94.75
55590;BME280;41452;42.780;23.116;2022-08-30T02:29:10;94521.47;;;17.76;94.63
55590;BME280;41452;42.780;23.116;2022-08-30T02:31:35;94525.72;;;17.77;94.73
55590;BME280;41452;42.780;23.116;2022-08-30T02:34:01;94531.03;;;17.82;94.81
55590;BME280;41452;42.780;23.116;2022-08-30T02:36:26;94529.69;;;17.85;94.95
55590;BME280;41452;42.780;23.116;2022-08-30T02:41:27;94528.38;;;17.88;95.20
55590;BME280;41452;42.780;23.116;2022-08-30T02:43:52;94530.22;;;17.87;95.14
55590;BME280;41452;42.780;23.116;2022-08-30T02:46:22;94524.66;;;17.89;95.27
55590;BME280;41452;42.780;23.116;2022-08-30T02:48:48;94516.97;;;17.82;95.53
55590;BME280;41452;42.780;23.116;2022-08-30T02:51:13;94526.53;;;17.88;95.65
55590;BME280;41452;42.780;23.116;2022-08-30T02:53:40;94519.91;;;17.85;95.43
55590;BME280;41452;42.780;23.116;2022-08-30T02:56:06;94494.97;;;17.66;95.43
55590;BME280;41452;42.780;23.116;2022-08-30T02:58:32;94528.66;;;17.86;95.54
55590;BME280;41452;42.780;23.116;2022-08-30T03:00:57;94532.09;;;17.86;95.81
55590;BME280;41452;42.780;23.116;2022-08-30T03:03:22;94529.19;;;17.88;95.88
55590;BME280;41452;42.780;23.116;2022-08-30T03:05:48;94536.88;;;17.90;96.01
55590;BME280;41452;42.780;23.116;2022-08-30T03:08:14;94473.22;;;17.59;95.41
55590;BME280;41452;42.780;23.116;2022-08-30T03:10:40;94502.88;;;17.76;95.15
55590;BME280;41452;42.780;23.116;2022-08-30T03:13:08;94526.50;;;17.93;95.06
55590;BME280;41452;42.780;23.116;2022-08-30T03:15:34;94526.50;;;17.93;95.23
55590;BME280;41452;42.780;23.116;2022-08-30T03:18:00;94510.31;;;17.84;95.09
55590;BME280;41452;42.780;23.116;2022-08-30T03:20:28;94506.34;;;17.77;94.76
55590;BME280;41452;42.780;23.116;2022-08-30T03:22:53;94516.41;;;17.95;94.79
55590;BME280;41452;42.780;23.116;2022-08-30T03:25:19;94525.97;;;17.96;94.48
55590;BME280;41452;42.780;23.116;2022-08-30T03:27:46;94525.16;;;17.96;94.82
55590;BME280;41452;42.780;23.116;2022-08-30T03:30:12;94519.34;;;17.89;94.40
55590;BME280;41452;42.780;23.116;2022-08-30T03:32:38;94505.84;;;17.75;94.51
55590;BME280;41452;42.780;23.116;2022-08-30T03:35:05;94520.16;;;17.89;94.30
55590;BME280;41452;42.780;23.116;2022-08-30T03:37:30;94523.06;;;17.82;94.24
55590;BME280;41452;42.780;23.116;2022-08-30T03:39:56;94513.75;;;17.80;94.27
55590;BME280;41452;42.780;23.116;2022-08-30T03:42:21;94518.81;;;17.81;94.31
55590;BME280;41452;42.780;23.116;2022-08-30T03:44:47;94503.19;;;17.64;94.39
55590;BME280;41452;42.780;23.116;2022-08-30T03:47:12;94515.13;;;17.72;94.20
55590;BME280;41452;42.780;23.116;2022-08-30T03:49:38;94532.91;;;17.82;94.08
55590;BME280;41452;42.780;23.116;2022-08-30T03:52:04;94528.38;;;17.82;94.16
55590;BME280;41452;42.780;23.116;2022-08-30T03:54:29;94529.94;;;17.83;94.21
55590;BME280;41452;42.780;23.116;2022-08-30T03:56:55;94493.13;;;17.56;94.14
55590;BME280;41452;42.780;23.116;2022-08-30T03:59:21;94534.22;;;17.79;94.54
55590;BME280;41452;42.780;23.116;2022-08-30T04:01:47;94530.00;;;17.73;94.46
55590;BME280;41452;42.780;23.116;2022-08-30T04:04:13;94535.31;;;17.78;94.47
55590;BME280;41452;42.780;23.116;2022-08-30T04:06:38;94522.03;;;17.68;94.55
55590;BME280;41452;42.780;23.116;2022-08-30T04:09:04;94528.41;;;17.72;94.92
55590;BME280;41452;42.780;23.116;2022-08-30T04:11:30;94485.22;;;17.36;94.85
55590;BME280;41452;42.780;23.116;2022-08-30T04:13:56;94542.22;;;17.64;94.89
55590;BME280;41452;42.780;23.116;2022-08-30T04:16:22;94543.81;;;17.65;95.03
55590;BME280;41452;42.780;23.116;2022-08-30T04:18:48;94537.16;;;17.67;95.12
55590;BME280;41452;42.780;23.116;2022-08-30T04:21:14;94538.50;;;17.70;95.10
55590;BME280;41452;42.780;23.116;2022-08-30T04:23:40;94534.25;;;17.64;95.12
55590;BME280;41452;42.780;23.116;2022-08-30T04:26:06;94545.69;;;17.70;95.06
55590;BME280;41452;42.780;23.116;2022-08-30T04:28:31;94552.03;;;17.68;95.30
55590;BME280;41452;42.780;23.116;2022-08-30T04:30:59;94552.56;;;17.65;95.74
55590;BME280;41452;42.780;23.116;2022-08-30T04:33:26;94542.78;;;17.61;95.73
55590;BME280;41452;42.780;23.116;2022-08-30T04:35:52;94549.66;;;17.62;95.87
55590;BME280;41452;42.780;23.116;2022-08-30T04:38:19;94552.59;;;17.60;95.96
55590;BME280;41452;42.780;23.116;2022-08-30T04:40:45;94542.78;;;17.56;96.30
55590;BME280;41452;42.780;23.116;2022-08-30T04:43:12;94551.78;;;17.60;96.40
55590;BME280;41452;42.780;23.116;2022-08-30T04:45:39;94527.91;;;17.49;97.12
55590;BME280;41452;42.780;23.116;2022-08-30T04:48:05;94531.91;;;17.52;97.10
55590;BME280;41452;42.780;23.116;2022-08-30T04:50:31;94547.53;;;17.69;97.52
55590;BME280;41452;42.780;23.116;2022-08-30T04:52:56;94555.50;;;17.69;97.99
55590;BME280;41452;42.780;23.116;2022-08-30T04:55:22;94545.44;;;17.66;98.10
55590;BME280;41452;42.780;23.116;2022-08-30T04:57:49;94512.53;;;17.46;98.08
55590;BME280;41452;42.780;23.116;2022-08-30T05:00:16;94553.34;;;17.76;98.32
55590;BME280;41452;42.780;23.116;2022-08-30T05:02:41;94534.00;;;17.60;98.36
55590;BME280;41452;42.780;23.116;2022-08-30T05:05:08;94551.50;;;17.77;98.71
55590;BME280;41452;42.780;23.116;2022-08-30T05:07:52;94554.41;;;17.80;98.90
55590;BME280;41452;42.780;23.116;2022-08-30T05:10:18;94530.81;;;17.63;99.51
55590;BME280;41452;42.780;23.116;2022-08-30T05:12:44;94550.19;;;17.69;99.69
55590;BME280;41452;42.780;23.116;2022-08-30T05:15:10;94565.84;;;17.86;99.88
55590;BME280;41452;42.780;23.116;2022-08-30T05:17:38;94554.94;;;17.82;100.00
55590;BME280;41452;42.780;23.116;2022-08-30T05:20:05;94564.22;;;17.90;99.98
55590;BME280;41452;42.780;23.116;2022-08-30T05:22:31;94545.09;;;17.78;99.50
55590;BME280;41452;42.780;23.116;2022-08-30T05:24:56;94553.84;;;17.83;99.62
55590;BME280;41452;42.780;23.116;2022-08-30T05:27:22;94576.44;;;18.01;100.00
55590;BME280;41452;42.780;23.116;2022-08-30T05:29:47;94558.38;;;17.93;100.00
55590;BME280;41452;42.780;23.116;2022-08-30T05:32:12;94524.97;;;17.72;100.00
55590;BME280;41452;42.780;23.116;2022-08-30T05:34:38;94553.06;;;17.93;100.00
55590;BME280;41452;42.780;23.116;2022-08-30T05:37:03;94567.91;;;18.04;100.00
55590;BME280;41452;42.780;23.116;2022-08-30T05:39:29;94559.69;;;18.01;100.00
55590;BME280;41452;42.780;23.116;2022-08-30T05:41:55;94567.09;;;18.09;100.00
55590;BME280;41452;42.780;23.116;2022-08-30T05:44:21;94560.75;;;18.05;100.00
55590;BME280;41452;42.780;23.116;2022-08-30T05:46:47;94576.63;;;18.15;100.00
55590;BME280;41452;42.780;23.116;2022-08-30T05:49:13;94566.56;;;18.12;100.00
55590;BME280;41452;42.780;23.116;2022-08-30T05:51:38;94596.50;;;18.33;100.00
55590;BME280;41452;42.780;23.116;2022-08-30T05:54:04;94536.28;;;18.03;100.00
55590;BME280;41452;42.780;23.116;2022-08-30T05:56:33;94588.75;;;18.37;100.00
55590;BME280;41452;42.780;23.116;2022-08-30T05:59:00;94589.06;;;18.35;100.00
55590;BME280;41452;42.780;23.116;2022-08-30T06:01:29;94597.56;;;18.37;100.00
55590;BME280;41452;42.780;23.116;2022-08-30T06:03:56;94576.31;;;18.27;100.00
55590;BME280;41452;42.780;23.116;2022-08-30T06:06:22;94541.59;;;18.08;100.00
55590;BME280;41452;42.780;23.116;2022-08-30T06:08:48;94570.78;;;18.13;100.00
55590;BME280;41452;42.780;23.116;2022-08-30T06:11:16;94570.00;;;18.13;100.00
55590;BME280;41452;42.780;23.116;2022-08-30T06:13:43;94591.22;;;18.28;100.00
55590;BME280;41452;42.780;23.116;2022-08-30T06:16:13;94595.69;;;18.33;100.00
55590;BME280;41452;42.780;23.116;2022-08-30T06:18:39;94571.84;;;18.17;100.00
55590;BME280;41452;42.780;23.116;2022-08-30T06:21:05;94597.81;;;18.41;100.00
55590;BME280;41452;42.780;23.116;2022-08-30T06:23:31;94581.88;;;18.36;100.00
55590;BME280;41452;42.780;23.116;2022-08-30T06:26:03;94600.97;;;18.48;100.00
55590;BME280;41452;42.780;23.116;2022-08-30T06:28:28;94587.44;;;18.39;100.00
55590;BME280;41452;42.780;23.116;2022-08-30T06:30:54;94600.97;;;18.48;100.00
55590;BME280;41452;42.780;23.116;2022-08-30T06:33:19;94605.75;;;18.46;100.00
55590;BME280;41452;42.780;23.116;2022-08-30T06:35:44;94586.91;;;18.37;100.00
55590;BME280;41452;42.780;23.116;2022-08-30T06:38:10;94545.56;;;18.11;100.00
55590;BME280;41452;42.780;23.116;2022-08-30T06:40:35;94594.59;;;18.44;100.00
55590;BME280;41452;42.780;23.116;2022-08-30T06:43:01;94587.69;;;18.43;100.00
55590;BME280;41452;42.780;23.116;2022-08-30T06:45:26;94566.22;;;18.29;100.00
55590;BME280;41452;42.780;23.116;2022-08-30T06:47:52;94600.91;;;18.58;100.00
55590;BME280;41452;42.780;23.116;2022-08-30T06:50:17;94581.84;;;18.46;100.00
55590;BME280;41452;42.780;23.116;2022-08-30T06:52:43;94585.28;;;18.47;100.00
55590;BME280;41452;42.780;23.116;2022-08-30T06:55:10;94615.53;;;18.61;100.00
55590;BME280;41452;42.780;23.116;2022-08-30T06:57:36;94565.69;;;18.32;100.00
55590;BME280;41452;42.780;23.116;2022-08-30T07:00:04;94616.31;;;18.61;100.00
55590;BME280;41452;42.780;23.116;2022-08-30T07:02:30;94616.88;;;18.58;100.00
55590;BME280;41452;42.780;23.116;2022-08-30T07:04:55;94606.50;;;18.62;100.00
55590;BME280;41452;42.780;23.116;2022-08-30T07:07:20;94621.91;;;18.60;100.00
55590;BME280;41452;42.780;23.116;2022-08-30T07:09:46;94571.28;;;18.26;100.00
55590;BME280;41452;42.780;23.116;2022-08-30T07:12:12;94601.50;;;18.45;100.00
55590;BME280;41452;42.780;23.116;2022-08-30T07:14:38;94621.44;;;18.48;100.00
55590;BME280;41452;42.780;23.116;2022-08-30T07:17:05;94640.84;;;18.53;100.00
55590;BME280;41452;42.780;23.116;2022-08-30T07:19:49;94601.03;;;18.28;100.00
55590;BME280;41452;42.780;23.116;2022-08-30T07:22:15;94633.38;;;18.55;99.58
55590;BME280;41452;42.780;23.116;2022-08-30T07:24:40;94630.97;;;18.59;100.00
55590;BME280;41452;42.780;23.116;2022-08-30T07:27:05;94637.34;;;18.58;99.63
55590;BME280;41452;42.780;23.116;2022-08-30T07:29:31;94580.34;;;18.24;99.50
55590;BME280;41452;42.780;23.116;2022-08-30T07:31:56;94580.88;;;18.21;99.59
55590;BME280;41452;42.780;23.116;2022-08-30T07:34:21;94617.69;;;18.49;99.75
55590;BME280;41452;42.780;23.116;2022-08-30T07:36:47;94620.38;;;18.43;100.00
55590;BME280;41452;42.780;23.116;2022-08-30T07:39:12;94613.75;;;18.46;99.18
55590;BME280;41452;42.780;23.116;2022-08-30T07:41:38;94630.69;;;18.60;99.74
55590;BME280;41452;42.780;23.116;2022-08-30T07:44:04;94630.16;;;18.64;99.90
55590;BME280;41452;42.780;23.116;2022-08-30T07:46:30;94611.84;;;18.52;99.76
55590;BME280;41452;42.780;23.116;2022-08-30T07:48:58;94637.28;;;18.68;99.05
55590;BME280;41452;42.780;23.116;2022-08-30T07:51:25;94641.00;;;18.72;99.43
55590;BME280;41452;42.780;23.116;2022-08-30T07:53:51;94618.69;;;18.68;99.22
55590;BME280;41452;42.780;23.116;2022-08-30T07:56:17;94636.97;;;18.80;99.75
55590;BME280;41452;42.780;23.116;2022-08-30T07:58:43;94623.44;;;18.76;99.35
55590;BME280;41452;42.780;23.116;2022-08-30T08:01:10;94635.88;;;18.81;99.76
55590;BME280;41452;42.780;23.116;2022-08-30T08:03:36;94608.81;;;18.69;99.33
55590;BME280;41452;42.780;23.116;2022-08-30T08:06:05;94576.50;;;18.51;99.26
55590;BME280;41452;42.780;23.116;2022-08-30T08:08:31;94630.06;;;18.84;99.83
55590;BME280;41452;42.780;23.116;2022-08-30T08:10:57;94607.53;;;18.66;99.74
55590;BME280;41452;42.780;23.116;2022-08-30T08:13:23;94595.03;;;18.61;100.00
55590;BME280;41452;42.780;23.116;2022-08-30T08:15:48;94637.53;;;18.82;99.93
55590;BME280;41452;42.780;23.116;2022-08-30T08:18:14;94629.00;;;18.80;99.20
55590;BME280;41452;42.780;23.116;2022-08-30T08:20:39;94620.00;;;18.71;98.67
55590;BME280;41452;42.780;23.116;2022-08-30T08:23:05;94640.72;;;18.84;99.35
55590;BME280;41452;42.780;23.116;2022-08-30T08:25:30;94656.88;;;18.93;99.49
55590;BME280;41452;42.780;23.116;2022-08-30T08:27:56;94581.84;;;18.46;99.98
55590;BME280;41452;42.780;23.116;2022-08-30T08:30:22;94630.31;;;18.77;99.99
55590;BME280;41452;42.780;23.116;2022-08-30T08:32:48;94651.28;;;18.99;100.00
55590;BME280;41452;42.780;23.116;2022-08-30T08:35:15;94660.00;;;19.05;100.00
55590;BME280;41452;42.780;23.116;2022-08-30T08:37:41;94656.00;;;19.08;100.00
55590;BME280;41452;42.780;23.116;2022-08-30T08:40:09;94659.75;;;19.07;99.55
55590;BME280;41452;42.780;23.116;2022-08-30T08:42:55;94666.63;;;19.08;100.00
55590;BME280;41452;42.780;23.116;2022-08-30T08:45:37;94641.22;;;18.86;99.28
55590;BME280;41452;42.780;23.116;2022-08-30T08:50:37;94666.63;;;19.08;99.35
55590;BME280;41452;42.780;23.116;2022-08-30T08:53:27;94665.31;;;19.10;100.00
55590;BME280;41452;42.780;23.116;2022-08-30T08:56:02;94675.16;;;19.10;99.80
55590;BME280;41452;42.780;23.116;2022-08-30T08:58:42;94669.84;;;19.10;100.00
55590;BME280;41452;42.780;23.116;2022-08-30T09:01:08;94669.28;;;19.13;100.00
55590;BME280;41452;42.780;23.116;2022-08-30T09:03:35;94636.34;;;18.98;100.00
55590;BME280;41452;42.780;23.116;2022-08-30T09:06:03;94666.34;;;19.14;100.00
55590;BME280;41452;42.780;23.116;2022-08-30T09:08:31;94660.22;;;19.14;99.53
55590;BME280;41452;42.780;23.116;2022-08-30T09:11:05;94652.53;;;19.07;99.29
55590;BME280;41452;42.780;23.116;2022-08-30T09:13:35;94615.44;;;18.87;98.19
55590;BME280;41452;42.780;23.116;2022-08-30T09:18:46;94656.72;;;19.18;98.25
55590;BME280;41452;42.780;23.116;2022-08-30T09:21:13;94652.44;;;19.23;98.36
55590;BME280;41452;42.780;23.116;2022-08-30T09:23:53;94649.03;;;19.17;98.55
55590;BME280;41452;42.780;23.116;2022-08-30T09:26:40;94644.25;;;19.14;98.71
55590;BME280;41452;42.780;23.116;2022-08-30T09:29:16;94644.25;;;19.14;98.48
55590;BME280;41452;42.780;23.116;2022-08-30T09:31:51;94619.84;;;19.02;98.53
55590;BME280;41452;42.780;23.116;2022-08-30T09:34:20;94639.22;;;19.12;98.22
55590;BME280;41452;42.780;23.116;2022-08-30T09:36:49;94635.19;;;19.15;97.84
55590;BME280;41452;42.780;23.116;2022-08-30T09:39:27;94595.41;;;18.94;97.36
55590;BME280;41452;42.780;23.116;2022-08-30T09:41:53;94626.13;;;19.16;97.44
55590;BME280;41452;42.780;23.116;2022-08-30T09:44:23;94551.13;;;18.69;97.84
55590;BME280;41452;42.780;23.116;2022-08-30T09:46:57;94603.88;;;19.02;98.67
55590;BME280;41452;42.780;23.116;2022-08-30T09:49:39;94611.84;;;19.07;98.85
55590;BME280;41452;42.780;23.116;2022-08-30T09:54:38;94607.03;;;19.09;100.00
55590;BME280;41452;42.780;23.116;2022-08-30T10:00:21;94630.91;;;19.19;100.00
55590;BME280;41452;42.780;23.116;2022-08-30T10:03:12;94616.06;;;19.08;100.00
55590;BME280;41452;42.780;23.116;2022-08-30T10:19:33;94635.91;;;19.26;100.00
55590;BME280;41452;42.780;23.116;2022-08-30T10:22:10;94605.91;;;19.15;100.00
55590;BME280;41452;42.780;23.116;2022-08-30T10:24:45;94566.63;;;19.02;100.00
55590;BME280;41452;42.780;23.116;2022-08-30T10:27:35;94589.63;;;19.22;100.00
55590;BME280;41452;42.780;23.116;2022-08-30T10:30:09;94609.69;;;19.43;100.00
55590;BME280;41452;42.780;23.116;2022-08-30T10:33:04;94613.94;;;19.44;100.00
55590;BME280;41452;42.780;23.116;2022-08-30T10:35:33;94608.81;;;19.53;100.00
55590;BME280;41452;42.780;23.116;2022-08-30T10:38:02;94609.84;;;19.57;100.00
55590;BME280;41452;42.780;23.116;2022-08-30T10:40:36;94575.91;;;19.38;100.00
55590;BME280;41452;42.780;23.116;2022-08-30T10:43:34;94601.25;;;19.65;100.00
55590;BME280;41452;42.780;23.116;2022-08-30T10:48:42;94603.88;;;19.70;100.00
55590;BME280;41452;42.780;23.116;2022-08-30T10:51:13;94595.34;;;19.68;100.00
55590;BME280;41452;42.780;23.116;2022-08-30T10:53:42;94592.41;;;19.70;100.00
55590;BME280;41452;42.780;23.116;2022-08-30T10:56:14;94609.09;;;19.81;100.00
55590;BME280;41452;42.780;23.116;2022-08-30T10:58:41;94606.41;;;19.86;100.00
55590;BME280;41452;42.780;23.116;2022-08-30T11:07:09;94599.41;;;19.95;100.00
55590;BME280;41452;42.780;23.116;2022-08-30T11:13:05;94607.53;;;20.04;100.00
55590;BME280;41452;42.780;23.116;2022-08-30T11:15:19;94529.31;;;19.65;100.00
55590;BME280;41452;42.780;23.116;2022-08-30T11:17:52;94586.66;;;20.11;100.00
55590;BME280;41452;42.780;23.116;2022-08-30T11:57:49;94563.72;;;20.96;88.48
55590;BME280;41452;42.780;23.116;2022-08-30T12:00:38;94555.19;;;21.13;88.65
55590;BME280;41452;42.780;23.116;2022-08-30T12:03:06;94553.22;;;21.19;86.72
55590;BME280;41452;42.780;23.116;2022-08-30T12:21:13;94453.09;;;21.02;91.54
55590;BME280;41452;42.780;23.116;2022-08-30T12:24:03;94529.63;;;21.59;91.95
55590;BME280;41452;42.780;23.116;2022-08-30T12:26:37;94526.34;;;21.62;90.06
55590;BME280;41452;42.780;23.116;2022-08-30T12:29:26;94518.22;;;21.67;84.97
55590;BME280;41452;42.780;23.116;2022-08-30T12:37:18;94524.09;;;21.69;86.86
55590;BME280;41452;42.780;23.116;2022-08-30T12:39:44;94508.56;;;21.71;86.08
55590;BME280;41452;42.780;23.116;2022-08-30T12:44:45;94472.88;;;21.62;87.18
55590;BME280;41452;42.780;23.116;2022-08-30T12:47:13;94509.75;;;21.93;87.50
55590;BME280;41452;42.780;23.116;2022-08-30T12:49:42;94471.13;;;21.71;87.45
55590;BME280;41452;42.780;23.116;2022-08-30T12:52:20;94509.13;;;22.10;88.52
55590;BME280;41452;42.780;23.116;2022-08-30T12:54:50;94490.22;;;22.06;88.01
55590;BME280;41452;42.780;23.116;2022-08-30T12:57:42;94507.53;;;22.23;88.50
55590;BME280;41452;42.780;23.116;2022-08-30T13:00:31;94504.53;;;22.24;87.70
55590;BME280;41452;42.780;23.116;2022-08-30T13:03:01;94504.53;;;22.24;86.89
55590;BME280;41452;42.780;23.116;2022-08-30T13:08:23;94495.44;;;22.39;86.70
55590;BME280;41452;42.780;23.116;2022-08-30T13:11:08;94489.31;;;22.38;86.12
55590;BME280;41452;42.780;23.116;2022-08-30T13:13:42;94460.00;;;22.19;84.20
55590;BME280;41452;42.780;23.116;2022-08-30T13:18:35;94464.13;;;22.26;83.11
55590;BME280;41452;42.780;23.116;2022-08-30T13:21:18;94483.72;;;22.49;82.83
55590;BME280;41452;42.780;23.116;2022-08-30T13:23:45;94419.78;;;22.11;82.42
55590;BME280;41452;42.780;23.116;2022-08-30T13:26:10;94489.34;;;22.61;81.95
55590;BME280;41452;42.780;23.116;2022-08-30T13:29:03;94489.41;;;22.70;81.13
55590;BME280;41452;42.780;23.116;2022-08-30T13:31:30;94486.91;;;22.73;79.88
55590;BME280;41452;42.780;23.116;2022-08-30T13:33:56;94461.66;;;22.66;80.37
55590;BME280;41452;42.780;23.116;2022-08-30T13:36:34;94486.06;;;22.87;81.30
55590;BME280;41452;42.780;23.116;2022-08-30T13:41:30;94451.16;;;22.69;74.26
55590;BME280;41452;42.780;23.116;2022-08-30T13:43:55;94476.81;;;22.93;77.30
55590;BME280;41452;42.780;23.116;2022-08-30T13:46:22;94420.22;;;22.63;76.76
55590;BME280;41452;42.780;23.116;2022-08-30T13:48:54;94457.00;;;22.94;76.92
55590;BME280;41452;42.780;23.116;2022-08-30T13:51:21;94438.00;;;22.82;78.30
55590;BME280;41452;42.780;23.116;2022-08-30T13:53:47;94462.09;;;23.04;77.23
55590;BME280;41452;42.780;23.116;2022-08-30T13:56:12;94450.41;;;23.00;74.61
55590;BME280;41452;42.780;23.116;2022-08-30T13:58:37;94455.66;;;23.05;75.87
55590;BME280;41452;42.780;23.116;2022-08-30T14:01:03;94437.94;;;22.95;75.27
55590;BME280;41452;42.780;23.116;2022-08-30T14:03:28;94458.69;;;23.12;75.37
55590;BME280;41452;42.780;23.116;2022-08-30T14:05:53;94455.09;;;23.17;75.22
55590;BME280;41452;42.780;23.116;2022-08-30T14:08:24;94454.69;;;23.24;76.48
55590;BME280;41452;42.780;23.116;2022-08-30T14:28:58;94429.63;;;23.28;72.86
55590;BME280;41452;42.780;23.116;2022-08-30T14:31:24;94425.09;;;23.38;74.42
55590;BME280;41452;42.780;23.116;2022-08-30T14:33:50;94421.94;;;23.35;76.58
55590;BME280;41452;42.780;23.116;2022-08-30T14:36:16;94399.50;;;23.23;75.57
55590;BME280;41452;42.780;23.116;2022-08-30T14:38:42;94412.81;;;23.37;75.95
55590;BME280;41452;42.780;23.116;2022-08-30T14:41:08;94412.97;;;23.40;74.96
55590;BME280;41452;42.780;23.116;2022-08-30T14:43:34;94416.00;;;23.47;75.31
55590;BME280;41452;42.780;23.116;2022-08-30T14:46:01;94406.81;;;23.40;75.91
55590;BME280;41452;42.780;23.116;2022-08-30T14:48:27;94410.47;;;23.44;75.05
55590;BME280;41452;42.780;23.116;2022-08-30T14:50:52;94386.94;;;23.32;73.41
55590;BME280;41452;42.780;23.116;2022-08-30T14:53:18;94397.03;;;23.35;73.08
55590;BME280;41452;42.780;23.116;2022-08-30T14:55:43;94405.44;;;23.51;74.80
55590;BME280;41452;42.780;23.116;2022-08-30T14:58:09;94406.69;;;23.53;76.30
55590;BME280;41452;42.780;23.116;2022-08-30T15:00:36;94365.47;;;23.23;76.92